createdAt,value
2019-03-28T00:01:01.192Z,9.20
2019-03-28T00:07:05.837Z,9.10
2019-03-28T00:13:10.559Z,9.00
2019-03-28T00:19:15.178Z,8.90
2019-03-28T00:25:20.181Z,8.90
2019-03-28T00:31:24.755Z,8.80
2019-03-28T00:37:29.326Z,8.70
2019-03-28T00:43:34.009Z,8.70
2019-03-28T00:49:38.589Z,8.70
2019-03-28T00:55:43.244Z,8.70
2019-03-28T01:01:47.918Z,8.60
2019-03-28T01:07:52.583Z,8.70
2019-03-28T01:13:57.158Z,8.60
2019-03-28T01:20:01.767Z,8.60
2019-03-28T01:26:06.442Z,8.60
2019-03-28T01:32:11.087Z,8.60
2019-03-28T01:38:15.753Z,8.60
2019-03-28T01:44:20.328Z,8.50
2019-03-28T01:50:24.950Z,8.50
2019-03-28T01:56:29.519Z,8.50
2019-03-28T02:02:34.175Z,8.40
2019-03-28T02:08:38.844Z,8.20
2019-03-28T02:14:43.433Z,8.20
2019-03-28T02:20:48.046Z,8.20
2019-03-28T02:26:52.620Z,8.30
2019-03-28T02:32:57.208Z,8.20
2019-03-28T02:39:01.818Z,8.20
2019-03-28T02:45:08.119Z,8.30
2019-03-28T02:51:12.745Z,8.30
2019-03-28T02:57:17.347Z,8.40
2019-03-28T03:03:21.947Z,8.40
2019-03-28T03:09:26.562Z,8.40
2019-03-28T03:15:31.286Z,8.40
2019-03-28T03:21:36.054Z,8.40
2019-03-28T03:27:56.163Z,8.30
2019-03-28T03:33:47.336Z,8.30
2019-03-28T03:39:51.951Z,8.30
2019-03-28T03:45:56.540Z,8.30
2019-03-28T03:52:01.178Z,8.40
2019-03-28T03:58:15.617Z,8.40
2019-03-28T04:04:12.221Z,8.50
2019-03-28T04:10:16.817Z,8.50
2019-03-28T04:16:21.451Z,8.50
2019-03-28T04:22:26.034Z,8.40
2019-03-28T04:28:32.574Z,8.30
2019-03-28T04:34:36.959Z,8.20
2019-03-28T04:40:41.619Z,8.20
2019-03-28T04:46:46.190Z,8.10
2019-03-28T04:52:52.903Z,8.10
2019-03-28T04:58:57.133Z,8.10
2019-03-28T05:05:01.695Z,8.00
2019-03-28T05:11:07.300Z,8.00
2019-03-28T05:17:11.898Z,8.00
2019-03-28T05:23:16.480Z,8.00
2019-03-28T05:29:22.052Z,8.10
2019-03-28T05:35:26.645Z,8.00
2019-03-28T05:41:31.232Z,8.10
2019-03-28T05:47:35.822Z,8.10
2019-03-28T05:53:40.465Z,8.20
2019-03-28T05:59:45.370Z,8.30
2019-03-28T06:05:50.097Z,8.40
2019-03-28T06:11:54.832Z,8.50
2019-03-28T06:17:59.454Z,8.60
2019-03-28T06:24:04.049Z,8.80
2019-03-28T06:30:10.435Z,8.90
2019-03-28T06:36:15.015Z,9.00
2019-03-28T06:42:19.617Z,9.10
2019-03-28T06:48:24.208Z,9.20
2019-03-28T06:54:28.810Z,9.40
2019-03-28T07:00:33.485Z,9.50
2019-03-28T07:06:38.095Z,9.60
2019-03-28T07:12:42.687Z,9.70
2019-03-28T07:18:47.366Z,9.80
2019-03-28T07:24:51.962Z,9.80
2019-03-28T07:30:56.562Z,9.80
2019-03-28T07:37:01.136Z,9.80
2019-03-28T07:43:05.792Z,9.70
2019-03-28T07:49:10.375Z,9.60
2019-03-28T07:55:16.697Z,9.70
2019-03-28T08:01:21.458Z,9.70
2019-03-28T08:07:26.054Z,9.80
2019-03-28T08:13:30.687Z,9.70
2019-03-28T08:19:35.274Z,9.80
2019-03-28T08:25:40.069Z,10.00
2019-03-28T08:31:46.590Z,10.00
2019-03-28T08:37:51.324Z,10.30
2019-03-28T08:43:55.924Z,10.40
2019-03-28T08:50:00.528Z,10.50
2019-03-28T08:56:05.118Z,10.30
2019-03-28T09:02:09.770Z,10.70
2019-03-28T09:08:14.364Z,10.90
2019-03-28T09:14:18.958Z,10.80
2019-03-28T09:20:23.618Z,10.70
2019-03-28T09:26:28.287Z,10.90
2019-03-28T09:32:33.045Z,12.40
2019-03-28T09:38:37.639Z,15.20
2019-03-28T09:44:42.225Z,16.00
2019-03-28T09:50:46.817Z,16.00
2019-03-28T09:56:51.430Z,16.20
2019-03-28T10:02:56.079Z,15.20
2019-03-28T10:09:00.738Z,14.60
2019-03-28T10:15:08.050Z,14.20
2019-03-28T10:21:12.716Z,14.90
2019-03-28T10:27:19.195Z,15.00
2019-03-28T10:33:24.538Z,14.60
2019-03-28T10:39:29.421Z,17.50
2019-03-28T10:45:34.138Z,16.90
2019-03-28T10:51:38.807Z,15.00
2019-03-28T10:57:43.437Z,15.70
2019-03-28T11:03:48.809Z,16.20
2019-03-28T11:09:53.408Z,14.80
2019-03-28T11:15:58.019Z,14.20
2019-03-28T11:22:02.605Z,13.40
2019-03-28T11:28:07.365Z,13.40
2019-03-28T11:34:12.067Z,14.00
2019-03-28T11:40:16.895Z,13.80
2019-03-28T11:46:21.493Z,14.70
2019-03-28T11:52:26.075Z,14.80
2019-03-28T11:58:30.690Z,14.00
2019-03-28T12:04:38.541Z,13.50
2019-03-28T12:10:41.675Z,13.10
2019-03-28T12:16:46.273Z,12.80
2019-03-28T12:22:55.754Z,12.80
2019-03-28T12:28:58.782Z,13.00
2019-03-28T12:35:03.371Z,13.40
2019-03-28T12:41:08.041Z,13.40
2019-03-28T12:47:12.706Z,13.30
2019-03-28T12:53:17.300Z,13.30
2019-03-28T12:59:21.892Z,13.30
2019-03-28T13:05:26.482Z,13.30
2019-03-28T13:11:31.069Z,13.30
2019-03-28T13:17:35.680Z,13.20
2019-03-28T13:23:40.364Z,13.20
2019-03-28T13:29:44.975Z,13.20
2019-03-28T13:35:49.547Z,13.20
2019-03-28T13:41:54.192Z,13.10
2019-03-28T13:47:58.753Z,13.10
2019-03-28T13:54:03.307Z,13.20
2019-03-28T14:00:10.678Z,13.30
2019-03-28T14:06:15.310Z,13.40
2019-03-28T14:12:23.332Z,13.40
2019-03-28T14:18:27.187Z,13.40
2019-03-28T14:24:31.757Z,13.50
2019-03-28T14:30:39.408Z,13.50
2019-03-28T14:36:42.619Z,13.40
2019-03-28T14:42:47.169Z,13.30
2019-03-28T14:48:51.780Z,13.00
2019-03-28T14:54:56.474Z,12.80
2019-03-28T15:01:01.108Z,12.80
2019-03-28T15:07:07.373Z,12.80
2019-03-28T15:13:12.186Z,12.80
2019-03-28T15:19:16.765Z,12.80
2019-03-28T15:25:21.399Z,12.80
2019-03-28T15:31:26.042Z,12.70
2019-03-28T15:37:30.624Z,12.70
2019-03-28T15:43:35.269Z,12.60
2019-03-28T15:49:39.888Z,12.50
2019-03-28T15:55:44.472Z,12.40
2019-03-28T16:01:49.107Z,12.30
2019-03-28T16:07:59.295Z,12.20
2019-03-28T16:14:03.418Z,12.20
2019-03-28T16:20:09.282Z,12.20
2019-03-28T16:26:13.909Z,12.20
2019-03-28T16:32:18.541Z,12.20
2019-03-28T16:38:23.098Z,12.10
2019-03-28T16:44:27.718Z,12.10
2019-03-28T16:50:32.290Z,12.10
2019-03-28T16:56:36.948Z,12.10
2019-03-28T17:02:41.768Z,12.00
2019-03-28T17:08:46.881Z,12.00
2019-03-28T17:14:51.801Z,12.00
2019-03-28T17:20:57.315Z,12.00
2019-03-28T17:27:01.959Z,11.90
2019-03-28T17:33:06.542Z,11.70
2019-03-28T17:39:11.118Z,11.40
2019-03-28T17:45:15.688Z,11.20
2019-03-28T17:51:20.323Z,10.90
2019-03-28T17:57:24.915Z,10.50
2019-03-28T18:03:31.360Z,10.30
2019-03-28T18:09:35.887Z,10.10
2019-03-28T18:15:40.707Z,10.10
2019-03-28T18:21:46.044Z,10.10
2019-03-28T18:27:50.753Z,10.00
2019-03-28T18:33:55.305Z,10.00
2019-03-28T18:39:59.858Z,10.00
2019-03-28T18:46:04.474Z,10.00
2019-03-28T18:52:09.170Z,10.10
2019-03-28T18:58:13.735Z,10.10
2019-03-28T19:04:18.297Z,10.20
2019-03-28T19:10:23.006Z,10.30
2019-03-28T19:16:27.592Z,10.30
2019-03-28T19:22:32.211Z,10.30
2019-03-28T19:28:36.765Z,10.30
2019-03-28T19:34:41.406Z,10.30
2019-03-28T19:40:46.039Z,10.20
2019-03-28T19:46:50.667Z,10.20
2019-03-28T19:52:55.297Z,10.10
2019-03-28T19:58:59.873Z,10.10
2019-03-28T20:05:06.215Z,10.00
2019-03-28T20:11:10.939Z,9.80
2019-03-28T20:17:15.755Z,9.60
2019-03-28T20:23:20.329Z,9.20
2019-03-28T20:29:24.938Z,9.10
2019-03-28T20:35:29.562Z,8.80
2019-03-28T20:41:34.180Z,8.60
2019-03-28T20:47:40.410Z,8.40
2019-03-28T20:53:44.990Z,8.20
2019-03-28T20:59:49.646Z,8.10
2019-03-28T21:05:54.326Z,7.80
2019-03-28T21:11:58.972Z,7.70
2019-03-28T21:18:03.622Z,7.50
2019-03-28T21:24:08.192Z,7.50
2019-03-28T21:30:13.220Z,7.50
2019-03-28T21:36:29.105Z,7.40
2019-03-28T21:42:24.070Z,7.20
2019-03-28T21:48:28.640Z,7.10
2019-03-28T21:54:33.264Z,7.10
2019-03-28T22:00:37.891Z,7.10
2019-03-28T22:06:43.407Z,7.00
2019-03-28T22:12:48.264Z,7.00
2019-03-28T22:18:52.905Z,7.00
2019-03-28T22:24:57.528Z,7.00
2019-03-28T22:31:02.144Z,6.90
2019-03-28T22:37:06.694Z,6.80
2019-03-28T22:43:11.246Z,6.60
2019-03-28T22:49:15.823Z,6.40
2019-03-28T22:55:20.391Z,6.30
2019-03-28T23:01:25.112Z,6.30
2019-03-28T23:07:29.670Z,6.60
2019-03-28T23:13:34.332Z,6.70
2019-03-28T23:19:38.888Z,6.90
2019-03-28T23:25:43.448Z,7.10
2019-03-28T23:31:50.655Z,7.20
2019-03-28T23:37:54.350Z,7.20
2019-03-28T23:43:58.913Z,7.30
2019-03-28T23:50:03.661Z,7.40
2019-03-28T23:56:08.208Z,7.30
